sensor_id;sensor_type;location;lat;lon;timestamp;P1;durP1;ratioP1;P2;durP2;ratioP2
71562;SDS011;59391;52.504;13.438;2023-07-13T00:00:29;8.35;;;4.10;;
71562;SDS011;59391;52.504;13.438;2023-07-13T00:02:57;6.70;;;4.07;;
71562;SDS011;59391;52.504;13.438;2023-07-13T00:05:23;7.88;;;3.97;;
71562;SDS011;59391;52.504;13.438;2023-07-13T00:07:49;8.27;;;4.20;;
71562;SDS011;59391;52.504;13.438;2023-07-13T00:10:16;8.27;;;4.17;;
71562;SDS011;59391;52.504;13.438;2023-07-13T00:12:42;7.88;;;4.68;;
71562;SDS011;59391;52.504;13.438;2023-07-13T00:15:13;8.80;;;4.53;;
71562;SDS011;59391;52.504;13.438;2023-07-13T00:17:49;6.93;;;4.40;;
71562;SDS011;59391;52.504;13.438;2023-07-13T00:20:20;7.63;;;4.18;;
71562;SDS011;59391;52.504;13.438;2023-07-13T00:22:48;6.47;;;4.43;;
71562;SDS011;59391;52.504;13.438;2023-07-13T00:25:14;7.15;;;4.13;;
71562;SDS011;59391;52.504;13.438;2023-07-13T00:27:41;7.18;;;4.18;;
71562;SDS011;59391;52.504;13.438;2023-07-13T00:30:08;7.57;;;4.10;;
71562;SDS011;59391;52.504;13.438;2023-07-13T00:32:36;8.38;;;4.65;;
71562;SDS011;59391;52.504;13.438;2023-07-13T00:35:02;6.73;;;4.13;;
71562;SDS011;59391;52.504;13.438;2023-07-13T00:37:29;6.30;;;3.78;;
71562;SDS011;59391;52.504;13.438;2023-07-13T00:39:55;6.53;;;3.95;;
71562;SDS011;59391;52.504;13.438;2023-07-13T00:42:21;5.82;;;3.80;;
71562;SDS011;59391;52.504;13.438;2023-07-13T00:47:32;6.20;;;3.60;;
71562;SDS011;59391;52.504;13.438;2023-07-13T00:49:59;6.00;;;3.45;;
71562;SDS011;59391;52.504;13.438;2023-07-13T00:52:25;6.80;;;3.97;;
71562;SDS011;59391;52.504;13.438;2023-07-13T00:54:53;7.67;;;3.80;;
71562;SDS011;59391;52.504;13.438;2023-07-13T00:57:20;8.23;;;3.92;;
71562;SDS011;59391;52.504;13.438;2023-07-13T00:59:54;4.78;;;3.58;;
71562;SDS011;59391;52.504;13.438;2023-07-13T01:02:24;6.35;;;3.30;;
71562;SDS011;59391;52.504;13.438;2023-07-13T01:04:51;6.80;;;3.75;;
71562;SDS011;59391;52.504;13.438;2023-07-13T01:07:17;5.33;;;3.40;;
71562;SDS011;59391;52.504;13.438;2023-07-13T01:09:44;5.95;;;4.05;;
71562;SDS011;59391;52.504;13.438;2023-07-13T01:12:10;10.07;;;4.35;;
71562;SDS011;59391;52.504;13.438;2023-07-13T01:14:36;5.55;;;3.58;;
71562;SDS011;59391;52.504;13.438;2023-07-13T01:17:02;9.83;;;4.37;;
71562;SDS011;59391;52.504;13.438;2023-07-13T01:19:44;7.95;;;4.00;;
71562;SDS011;59391;52.504;13.438;2023-07-13T01:22:15;6.78;;;3.85;;
71562;SDS011;59391;52.504;13.438;2023-07-13T01:24:44;6.37;;;3.43;;
71562;SDS011;59391;52.504;13.438;2023-07-13T01:27:14;7.72;;;4.40;;
71562;SDS011;59391;52.504;13.438;2023-07-13T01:29:45;8.20;;;4.50;;
71562;SDS011;59391;52.504;13.438;2023-07-13T01:32:14;9.70;;;4.35;;
71562;SDS011;59391;52.504;13.438;2023-07-13T01:34:48;7.30;;;4.20;;
71562;SDS011;59391;52.504;13.438;2023-07-13T01:37:18;6.07;;;3.80;;
71562;SDS011;59391;52.504;13.438;2023-07-13T01:39:45;7.10;;;3.63;;
71562;SDS011;59391;52.504;13.438;2023-07-13T01:42:11;6.65;;;3.47;;
71562;SDS011;59391;52.504;13.438;2023-07-13T01:44:37;9.88;;;5.00;;
71562;SDS011;59391;52.504;13.438;2023-07-13T01:47:03;7.60;;;4.77;;
71562;SDS011;59391;52.504;13.438;2023-07-13T01:49:30;8.10;;;5.03;;
71562;SDS011;59391;52.504;13.438;2023-07-13T01:51:55;7.00;;;4.20;;
71562;SDS011;59391;52.504;13.438;2023-07-13T01:54:21;7.40;;;3.90;;
71562;SDS011;59391;52.504;13.438;2023-07-13T01:56:47;8.47;;;4.40;;
71562;SDS011;59391;52.504;13.438;2023-07-13T01:59:12;7.80;;;4.50;;
71562;SDS011;59391;52.504;13.438;2023-07-13T02:01:38;6.70;;;4.43;;
71562;SDS011;59391;52.504;13.438;2023-07-13T02:04:03;7.63;;;4.40;;
71562;SDS011;59391;52.504;13.438;2023-07-13T02:06:30;7.83;;;4.97;;
71562;SDS011;59391;52.504;13.438;2023-07-13T02:08:55;6.07;;;4.05;;
71562;SDS011;59391;52.504;13.438;2023-07-13T02:11:21;8.53;;;4.00;;
71562;SDS011;59391;52.504;13.438;2023-07-13T02:13:47;6.15;;;4.35;;
71562;SDS011;59391;52.504;13.438;2023-07-13T02:16:12;6.30;;;4.27;;
71562;SDS011;59391;52.504;13.438;2023-07-13T02:18:38;9.90;;;4.40;;
71562;SDS011;59391;52.504;13.438;2023-07-13T02:21:03;6.23;;;4.07;;
71562;SDS011;59391;52.504;13.438;2023-07-13T02:23:29;7.63;;;4.27;;
71562;SDS011;59391;52.504;13.438;2023-07-13T02:25:59;6.30;;;4.20;;
71562;SDS011;59391;52.504;13.438;2023-07-13T02:28:27;6.47;;;4.05;;
71562;SDS011;59391;52.504;13.438;2023-07-13T02:30:53;7.80;;;4.43;;
71562;SDS011;59391;52.504;13.438;2023-07-13T02:33:19;8.27;;;4.20;;
71562;SDS011;59391;52.504;13.438;2023-07-13T02:35:45;9.23;;;3.95;;
71562;SDS011;59391;52.504;13.438;2023-07-13T02:38:10;5.87;;;4.47;;
71562;SDS011;59391;52.504;13.438;2023-07-13T02:40:36;6.20;;;3.97;;
71562;SDS011;59391;52.504;13.438;2023-07-13T02:43:02;6.20;;;4.33;;
71562;SDS011;59391;52.504;13.438;2023-07-13T02:45:28;8.70;;;4.70;;
71562;SDS011;59391;52.504;13.438;2023-07-13T02:47:54;6.57;;;4.37;;
71562;SDS011;59391;52.504;13.438;2023-07-13T02:50:19;7.10;;;4.50;;
71562;SDS011;59391;52.504;13.438;2023-07-13T02:52:45;8.77;;;5.00;;
71562;SDS011;59391;52.504;13.438;2023-07-13T02:55:11;7.10;;;4.80;;
71562;SDS011;59391;52.504;13.438;2023-07-13T02:57:36;7.43;;;4.97;;
71562;SDS011;59391;52.504;13.438;2023-07-13T03:00:03;8.63;;;4.78;;
71562;SDS011;59391;52.504;13.438;2023-07-13T03:02:33;7.10;;;4.20;;
71562;SDS011;59391;52.504;13.438;2023-07-13T03:05:00;10.02;;;4.93;;
71562;SDS011;59391;52.504;13.438;2023-07-13T03:07:26;7.43;;;4.50;;
71562;SDS011;59391;52.504;13.438;2023-07-13T03:09:55;6.82;;;4.30;;
71562;SDS011;59391;52.504;13.438;2023-07-13T03:12:21;7.63;;;4.78;;
71562;SDS011;59391;52.504;13.438;2023-07-13T03:14:48;7.67;;;4.70;;
71562;SDS011;59391;52.504;13.438;2023-07-13T03:17:14;6.78;;;4.70;;
71562;SDS011;59391;52.504;13.438;2023-07-13T03:19:39;6.37;;;4.27;;
71562;SDS011;59391;52.504;13.438;2023-07-13T03:22:05;8.52;;;5.15;;
71562;SDS011;59391;52.504;13.438;2023-07-13T03:24:32;8.05;;;4.88;;
71562;SDS011;59391;52.504;13.438;2023-07-13T03:27:00;6.22;;;4.38;;
71562;SDS011;59391;52.504;13.438;2023-07-13T03:29:30;7.23;;;4.60;;
71562;SDS011;59391;52.504;13.438;2023-07-13T03:31:55;6.35;;;4.40;;
71562;SDS011;59391;52.504;13.438;2023-07-13T03:34:21;6.47;;;4.57;;
71562;SDS011;59391;52.504;13.438;2023-07-13T03:36:47;7.13;;;4.70;;
71562;SDS011;59391;52.504;13.438;2023-07-13T03:39:12;5.83;;;4.47;;
71562;SDS011;59391;52.504;13.438;2023-07-13T03:41:38;9.27;;;4.87;;
71562;SDS011;59391;52.504;13.438;2023-07-13T03:44:04;6.95;;;4.32;;
71562;SDS011;59391;52.504;13.438;2023-07-13T03:46:29;7.13;;;4.65;;
71562;SDS011;59391;52.504;13.438;2023-07-13T03:48:55;7.07;;;4.70;;
71562;SDS011;59391;52.504;13.438;2023-07-13T03:51:22;7.65;;;4.82;;
71562;SDS011;59391;52.504;13.438;2023-07-13T03:53:47;7.55;;;4.63;;
71562;SDS011;59391;52.504;13.438;2023-07-13T03:56:14;8.37;;;4.33;;
71562;SDS011;59391;52.504;13.438;2023-07-13T03:58:41;7.20;;;4.50;;
71562;SDS011;59391;52.504;13.438;2023-07-13T04:01:09;7.20;;;4.28;;
71562;SDS011;59391;52.504;13.438;2023-07-13T04:03:37;6.93;;;4.35;;
71562;SDS011;59391;52.504;13.438;2023-07-13T04:06:07;6.53;;;4.40;;
71562;SDS011;59391;52.504;13.438;2023-07-13T04:08:40;6.90;;;4.40;;
71562;SDS011;59391;52.504;13.438;2023-07-13T04:11:06;7.15;;;3.75;;
71562;SDS011;59391;52.504;13.438;2023-07-13T04:13:32;5.97;;;3.90;;
71562;SDS011;59391;52.504;13.438;2023-07-13T04:15:58;7.63;;;4.10;;
71562;SDS011;59391;52.504;13.438;2023-07-13T04:18:23;6.60;;;3.70;;
71562;SDS011;59391;52.504;13.438;2023-07-13T04:20:49;5.90;;;3.63;;
71562;SDS011;59391;52.504;13.438;2023-07-13T04:23:16;5.90;;;3.78;;
71562;SDS011;59391;52.504;13.438;2023-07-13T04:25:45;6.55;;;4.07;;
71562;SDS011;59391;52.504;13.438;2023-07-13T04:28:14;8.15;;;4.00;;
71562;SDS011;59391;52.504;13.438;2023-07-13T04:30:42;8.73;;;4.60;;
71562;SDS011;59391;52.504;13.438;2023-07-13T04:33:08;7.17;;;3.93;;
71562;SDS011;59391;52.504;13.438;2023-07-13T04:35:34;7.68;;;4.10;;
71562;SDS011;59391;52.504;13.438;2023-07-13T04:38:00;7.38;;;4.13;;
71562;SDS011;59391;52.504;13.438;2023-07-13T04:40:27;6.77;;;4.07;;
71562;SDS011;59391;52.504;13.438;2023-07-13T04:42:54;6.50;;;4.00;;
71562;SDS011;59391;52.504;13.438;2023-07-13T04:45:21;7.43;;;4.07;;
71562;SDS011;59391;52.504;13.438;2023-07-13T04:47:46;6.87;;;4.10;;
71562;SDS011;59391;52.504;13.438;2023-07-13T04:50:13;7.43;;;4.50;;
71562;SDS011;59391;52.504;13.438;2023-07-13T04:52:43;7.55;;;3.83;;
71562;SDS011;59391;52.504;13.438;2023-07-13T04:55:11;5.73;;;4.20;;
71562;SDS011;59391;52.504;13.438;2023-07-13T04:57:36;7.13;;;3.90;;
71562;SDS011;59391;52.504;13.438;2023-07-13T05:00:02;6.27;;;3.90;;
71562;SDS011;59391;52.504;13.438;2023-07-13T05:02:31;5.67;;;4.00;;
71562;SDS011;59391;52.504;13.438;2023-07-13T05:04:58;6.40;;;4.13;;
71562;SDS011;59391;52.504;13.438;2023-07-13T05:07:25;6.22;;;4.10;;
71562;SDS011;59391;52.504;13.438;2023-07-13T05:09:51;6.57;;;3.90;;
71562;SDS011;59391;52.504;13.438;2023-07-13T05:12:17;6.80;;;4.20;;
71562;SDS011;59391;52.504;13.438;2023-07-13T05:14:43;7.30;;;4.20;;
71562;SDS011;59391;52.504;13.438;2023-07-13T05:17:09;6.18;;;3.90;;
71562;SDS011;59391;52.504;13.438;2023-07-13T05:19:35;7.63;;;3.83;;
71562;SDS011;59391;52.504;13.438;2023-07-13T05:22:01;6.13;;;4.10;;
71562;SDS011;59391;52.504;13.438;2023-07-13T05:24:28;8.05;;;5.28;;
71562;SDS011;59391;52.504;13.438;2023-07-13T05:26:53;7.40;;;4.37;;
71562;SDS011;59391;52.504;13.438;2023-07-13T05:29:19;8.77;;;3.97;;
71562;SDS011;59391;52.504;13.438;2023-07-13T05:31:46;7.60;;;4.43;;
71562;SDS011;59391;52.504;13.438;2023-07-13T05:34:12;5.73;;;3.60;;
71562;SDS011;59391;52.504;13.438;2023-07-13T05:36:38;7.30;;;3.80;;
71562;SDS011;59391;52.504;13.438;2023-07-13T05:39:03;5.90;;;3.73;;
71562;SDS011;59391;52.504;13.438;2023-07-13T05:41:29;9.57;;;4.20;;
71562;SDS011;59391;52.504;13.438;2023-07-13T05:43:55;6.17;;;3.83;;
71562;SDS011;59391;52.504;13.438;2023-07-13T05:46:20;5.80;;;3.67;;
71562;SDS011;59391;52.504;13.438;2023-07-13T05:48:46;7.30;;;3.67;;
71562;SDS011;59391;52.504;13.438;2023-07-13T05:51:12;6.80;;;3.92;;
71562;SDS011;59391;52.504;13.438;2023-07-13T05:53:38;7.97;;;4.35;;
71562;SDS011;59391;52.504;13.438;2023-07-13T05:56:04;6.57;;;3.70;;
71562;SDS011;59391;52.504;13.438;2023-07-13T05:58:30;7.22;;;3.67;;
71562;SDS011;59391;52.504;13.438;2023-07-13T06:01:02;6.60;;;4.27;;
71562;SDS011;59391;52.504;13.438;2023-07-13T06:03:31;6.95;;;4.20;;
71562;SDS011;59391;52.504;13.438;2023-07-13T06:05:57;6.20;;;4.35;;
71562;SDS011;59391;52.504;13.438;2023-07-13T06:08:25;6.72;;;4.20;;
71562;SDS011;59391;52.504;13.438;2023-07-13T06:10:51;8.17;;;4.40;;
71562;SDS011;59391;52.504;13.438;2023-07-13T06:13:17;7.85;;;4.22;;
71562;SDS011;59391;52.504;13.438;2023-07-13T06:15:47;7.35;;;4.20;;
71562;SDS011;59391;52.504;13.438;2023-07-13T06:18:16;7.28;;;4.15;;
71562;SDS011;59391;52.504;13.438;2023-07-13T06:20:42;8.90;;;4.50;;
71562;SDS011;59391;52.504;13.438;2023-07-13T06:23:07;7.93;;;4.47;;
71562;SDS011;59391;52.504;13.438;2023-07-13T06:25:33;8.70;;;4.30;;
71562;SDS011;59391;52.504;13.438;2023-07-13T06:27:58;6.00;;;3.60;;
71562;SDS011;59391;52.504;13.438;2023-07-13T06:30:25;8.82;;;4.55;;
71562;SDS011;59391;52.504;13.438;2023-07-13T06:32:51;7.95;;;4.50;;
71562;SDS011;59391;52.504;13.438;2023-07-13T06:35:17;7.30;;;4.50;;
71562;SDS011;59391;52.504;13.438;2023-07-13T06:37:43;6.87;;;4.00;;
71562;SDS011;59391;52.504;13.438;2023-07-13T06:40:08;6.90;;;4.47;;
71562;SDS011;59391;52.504;13.438;2023-07-13T06:42:34;6.35;;;4.45;;
71562;SDS011;59391;52.504;13.438;2023-07-13T06:45:00;6.80;;;4.22;;
71562;SDS011;59391;52.504;13.438;2023-07-13T06:47:26;7.47;;;4.00;;
71562;SDS011;59391;52.504;13.438;2023-07-13T06:49:52;7.13;;;4.40;;
71562;SDS011;59391;52.504;13.438;2023-07-13T06:52:18;6.40;;;3.73;;
71562;SDS011;59391;52.504;13.438;2023-07-13T06:54:44;6.10;;;3.63;;
71562;SDS011;59391;52.504;13.438;2023-07-13T06:57:09;6.22;;;3.50;;
71562;SDS011;59391;52.504;13.438;2023-07-13T06:59:35;7.10;;;3.80;;
71562;SDS011;59391;52.504;13.438;2023-07-13T07:02:01;6.23;;;3.57;;
71562;SDS011;59391;52.504;13.438;2023-07-13T07:04:26;6.65;;;4.07;;
71562;SDS011;59391;52.504;13.438;2023-07-13T07:06:52;6.70;;;3.40;;
71562;SDS011;59391;52.504;13.438;2023-07-13T07:09:18;7.70;;;3.47;;
71562;SDS011;59391;52.504;13.438;2023-07-13T07:11:43;5.73;;;3.30;;
71562;SDS011;59391;52.504;13.438;2023-07-13T07:14:09;7.32;;;3.13;;
71562;SDS011;59391;52.504;13.438;2023-07-13T07:16:35;6.40;;;3.00;;
71562;SDS011;59391;52.504;13.438;2023-07-13T07:19:00;7.40;;;2.97;;
71562;SDS011;59391;52.504;13.438;2023-07-13T07:21:26;6.77;;;3.47;;
71562;SDS011;59391;52.504;13.438;2023-07-13T07:23:52;7.18;;;3.30;;
71562;SDS011;59391;52.504;13.438;2023-07-13T07:26:18;5.27;;;3.23;;
71562;SDS011;59391;52.504;13.438;2023-07-13T07:28:44;5.18;;;2.83;;
71562;SDS011;59391;52.504;13.438;2023-07-13T07:31:10;5.00;;;2.70;;
71562;SDS011;59391;52.504;13.438;2023-07-13T07:33:36;5.30;;;2.88;;
71562;SDS011;59391;52.504;13.438;2023-07-13T07:36:02;5.10;;;3.07;;
71562;SDS011;59391;52.504;13.438;2023-07-13T07:38:28;5.10;;;3.13;;
71562;SDS011;59391;52.504;13.438;2023-07-13T07:40:54;6.15;;;2.83;;
71562;SDS011;59391;52.504;13.438;2023-07-13T07:43:20;5.47;;;3.07;;
71562;SDS011;59391;52.504;13.438;2023-07-13T07:45:45;6.10;;;2.73;;
71562;SDS011;59391;52.504;13.438;2023-07-13T07:48:11;4.88;;;2.85;;
71562;SDS011;59391;52.504;13.438;2023-07-13T07:50:37;6.10;;;3.00;;
71562;SDS011;59391;52.504;13.438;2023-07-13T07:53:04;7.90;;;2.80;;
71562;SDS011;59391;52.504;13.438;2023-07-13T07:55:32;5.93;;;2.85;;
71562;SDS011;59391;52.504;13.438;2023-07-13T07:58:00;5.07;;;2.88;;
71562;SDS011;59391;52.504;13.438;2023-07-13T08:00:26;5.60;;;2.70;;
71562;SDS011;59391;52.504;13.438;2023-07-13T08:02:55;5.45;;;2.90;;
71562;SDS011;59391;52.504;13.438;2023-07-13T08:05:21;5.80;;;2.70;;
71562;SDS011;59391;52.504;13.438;2023-07-13T08:07:46;4.63;;;2.60;;
71562;SDS011;59391;52.504;13.438;2023-07-13T08:10:12;5.10;;;3.13;;
71562;SDS011;59391;52.504;13.438;2023-07-13T08:12:38;4.37;;;2.57;;
71562;SDS011;59391;52.504;13.438;2023-07-13T08:15:05;6.20;;;2.78;;
71562;SDS011;59391;52.504;13.438;2023-07-13T08:17:35;6.35;;;2.50;;
71562;SDS011;59391;52.504;13.438;2023-07-13T08:20:01;5.27;;;2.50;;
71562;SDS011;59391;52.504;13.438;2023-07-13T08:22:27;5.10;;;2.92;;
71562;SDS011;59391;52.504;13.438;2023-07-13T08:24:53;5.55;;;2.63;;
71562;SDS011;59391;52.504;13.438;2023-07-13T08:27:25;4.53;;;2.50;;
71562;SDS011;59391;52.504;13.438;2023-07-13T08:29:53;6.30;;;2.97;;
71562;SDS011;59391;52.504;13.438;2023-07-13T08:32:20;5.70;;;2.70;;
71562;SDS011;59391;52.504;13.438;2023-07-13T08:34:47;5.10;;;2.50;;
71562;SDS011;59391;52.504;13.438;2023-07-13T08:37:14;4.88;;;2.55;;
71562;SDS011;59391;52.504;13.438;2023-07-13T08:39:41;3.77;;;2.47;;
71562;SDS011;59391;52.504;13.438;2023-07-13T08:42:12;5.25;;;2.70;;
71562;SDS011;59391;52.504;13.438;2023-07-13T08:45:21;7.60;;;3.13;;
71562;SDS011;59391;52.504;13.438;2023-07-13T08:47:57;6.28;;;3.00;;
71562;SDS011;59391;52.504;13.438;2023-07-13T08:50:55;6.50;;;3.20;;
71562;SDS011;59391;52.504;13.438;2023-07-13T08:53:31;5.20;;;2.87;;
71562;SDS011;59391;52.504;13.438;2023-07-13T08:56:03;4.50;;;2.70;;
71562;SDS011;59391;52.504;13.438;2023-07-13T08:58:38;7.57;;;3.13;;
71562;SDS011;59391;52.504;13.438;2023-07-13T09:04:03;4.90;;;3.10;;
71562;SDS011;59391;52.504;13.438;2023-07-13T09:06:49;5.27;;;3.03;;
71562;SDS011;59391;52.504;13.438;2023-07-13T09:09:36;5.47;;;2.92;;
71562;SDS011;59391;52.504;13.438;2023-07-13T09:12:26;6.30;;;3.53;;
71562;SDS011;59391;52.504;13.438;2023-07-13T09:15:24;6.85;;;2.78;;
71562;SDS011;59391;52.504;13.438;2023-07-13T09:17:57;4.75;;;2.60;;
71562;SDS011;59391;52.504;13.438;2023-07-13T09:20:47;6.07;;;2.67;;
71562;SDS011;59391;52.504;13.438;2023-07-13T09:23:21;5.00;;;2.20;;
71562;SDS011;59391;52.504;13.438;2023-07-13T09:25:51;5.88;;;2.60;;
71562;SDS011;59391;52.504;13.438;2023-07-13T09:28:46;5.72;;;2.30;;
71562;SDS011;59391;52.504;13.438;2023-07-13T09:31:23;5.68;;;2.40;;
71562;SDS011;59391;52.504;13.438;2023-07-13T09:34:04;5.53;;;2.50;;
71562;SDS011;59391;52.504;13.438;2023-07-13T09:36:35;4.88;;;2.60;;
71562;SDS011;59391;52.504;13.438;2023-07-13T09:44:15;4.55;;;2.70;;
71562;SDS011;59391;52.504;13.438;2023-07-13T09:46:53;6.50;;;2.90;;
71562;SDS011;59391;52.504;13.438;2023-07-13T09:49:24;5.00;;;3.00;;
71562;SDS011;59391;52.504;13.438;2023-07-13T09:52:09;6.30;;;3.10;;
71562;SDS011;59391;52.504;13.438;2023-07-13T09:54:39;6.23;;;3.60;;
71562;SDS011;59391;52.504;13.438;2023-07-13T09:57:17;6.20;;;3.58;;
71562;SDS011;59391;52.504;13.438;2023-07-13T09:59:48;6.97;;;3.40;;
71562;SDS011;59391;52.504;13.438;2023-07-13T10:02:24;5.35;;;3.20;;
71562;SDS011;59391;52.504;13.438;2023-07-13T10:04:58;5.18;;;3.38;;
71562;SDS011;59391;52.504;13.438;2023-07-13T10:07:39;7.77;;;3.93;;
71562;SDS011;59391;52.504;13.438;2023-07-13T10:10:16;6.55;;;3.72;;
71562;SDS011;59391;52.504;13.438;2023-07-13T10:12:46;7.10;;;3.80;;
71562;SDS011;59391;52.504;13.438;2023-07-13T10:15:22;6.18;;;3.70;;
71562;SDS011;59391;52.504;13.438;2023-07-13T10:17:50;5.93;;;3.90;;
71562;SDS011;59391;52.504;13.438;2023-07-13T10:20:19;7.23;;;4.20;;
71562;SDS011;59391;52.504;13.438;2023-07-13T10:23:00;7.25;;;4.25;;
71562;SDS011;59391;52.504;13.438;2023-07-13T10:25:34;7.93;;;3.95;;
71562;SDS011;59391;52.504;13.438;2023-07-13T10:28:06;7.75;;;4.50;;
71562;SDS011;59391;52.504;13.438;2023-07-13T10:30:58;7.85;;;4.03;;
71562;SDS011;59391;52.504;13.438;2023-07-13T10:33:27;7.77;;;4.10;;
71562;SDS011;59391;52.504;13.438;2023-07-13T10:35:54;6.03;;;3.97;;
71562;SDS011;59391;52.504;13.438;2023-07-13T10:38:41;7.65;;;3.38;;
71562;SDS011;59391;52.504;13.438;2023-07-13T10:41:10;7.90;;;3.85;;
71562;SDS011;59391;52.504;13.438;2023-07-13T10:43:43;6.90;;;3.80;;
71562;SDS011;59391;52.504;13.438;2023-07-13T10:46:15;5.47;;;3.92;;
71562;SDS011;59391;52.504;13.438;2023-07-13T10:48:46;6.32;;;3.67;;
71562;SDS011;59391;52.504;13.438;2023-07-13T10:51:30;6.40;;;4.00;;
71562;SDS011;59391;52.504;13.438;2023-07-13T10:56:43;7.50;;;3.73;;
71562;SDS011;59391;52.504;13.438;2023-07-13T11:01:41;7.28;;;3.70;;
71562;SDS011;59391;52.504;13.438;2023-07-13T11:04:44;6.13;;;3.60;;
71562;SDS011;59391;52.504;13.438;2023-07-13T11:07:26;5.68;;;3.72;;
71562;SDS011;59391;52.504;13.438;2023-07-13T11:09:56;5.50;;;3.27;;
71562;SDS011;59391;52.504;13.438;2023-07-13T11:22:50;6.37;;;3.80;;
71562;SDS011;59391;52.504;13.438;2023-07-13T11:25:33;6.97;;;3.22;;
71562;SDS011;59391;52.504;13.438;2023-07-13T11:28:07;6.22;;;3.45;;
71562;SDS011;59391;52.504;13.438;2023-07-13T11:30:38;5.85;;;3.63;;
71562;SDS011;59391;52.504;13.438;2023-07-13T11:33:23;5.60;;;2.97;;
71562;SDS011;59391;52.504;13.438;2023-07-13T11:38:39;6.03;;;3.30;;
71562;SDS011;59391;52.504;13.438;2023-07-13T11:41:25;8.05;;;3.78;;
71562;SDS011;59391;52.504;13.438;2023-07-13T11:44:07;5.82;;;3.03;;
71562;SDS011;59391;52.504;13.438;2023-07-13T11:46:44;8.52;;;3.53;;
71562;SDS011;59391;52.504;13.438;2023-07-13T11:49:16;6.83;;;3.23;;
71562;SDS011;59391;52.504;13.438;2023-07-13T11:51:48;6.70;;;3.20;;
71562;SDS011;59391;52.504;13.438;2023-07-13T11:57:01;5.32;;;3.20;;
71562;SDS011;59391;52.504;13.438;2023-07-13T11:59:52;9.13;;;4.30;;
71562;SDS011;59391;52.504;13.438;2023-07-13T12:02:42;10.17;;;3.27;;
71562;SDS011;59391;52.504;13.438;2023-07-13T12:05:14;4.95;;;3.05;;
71562;SDS011;59391;52.504;13.438;2023-07-13T12:07:42;5.10;;;3.30;;
71562;SDS011;59391;52.504;13.438;2023-07-13T12:12:53;5.07;;;3.00;;
71562;SDS011;59391;52.504;13.438;2023-07-13T12:15:28;5.70;;;3.30;;
71562;SDS011;59391;52.504;13.438;2023-07-13T12:18:10;7.32;;;2.88;;
71562;SDS011;59391;52.504;13.438;2023-07-13T12:20:46;6.95;;;3.45;;
71562;SDS011;59391;52.504;13.438;2023-07-13T12:23:21;6.15;;;2.70;;
71562;SDS011;59391;52.504;13.438;2023-07-13T12:25:51;7.20;;;3.28;;
71562;SDS011;59391;52.504;13.438;2023-07-13T12:31:02;6.65;;;3.05;;
71562;SDS011;59391;52.504;13.438;2023-07-13T12:33:43;6.70;;;3.42;;
71562;SDS011;59391;52.504;13.438;2023-07-13T12:36:09;5.10;;;2.87;;
71562;SDS011;59391;52.504;13.438;2023-07-13T12:38:37;8.48;;;3.30;;
71562;SDS011;59391;52.504;13.438;2023-07-13T12:41:03;4.95;;;3.00;;
71562;SDS011;59391;52.504;13.438;2023-07-13T12:43:32;7.10;;;3.25;;
71562;SDS011;59391;52.504;13.438;2023-07-13T12:46:05;8.57;;;3.30;;
71562;SDS011;59391;52.504;13.438;2023-07-13T12:48:42;7.18;;;2.53;;
71562;SDS011;59391;52.504;13.438;2023-07-13T12:51:11;5.38;;;2.60;;
71562;SDS011;59391;52.504;13.438;2023-07-13T12:53:40;6.47;;;2.92;;
71562;SDS011;59391;52.504;13.438;2023-07-13T12:56:18;4.53;;;2.72;;
71562;SDS011;59391;52.504;13.438;2023-07-13T12:58:49;5.47;;;2.60;;
71562;SDS011;59391;52.504;13.438;2023-07-13T13:01:20;5.03;;;2.80;;
71562;SDS011;59391;52.504;13.438;2023-07-13T13:03:49;6.15;;;2.80;;
71562;SDS011;59391;52.504;13.438;2023-07-13T13:08:45;5.63;;;2.60;;
71562;SDS011;59391;52.504;13.438;2023-07-13T13:11:13;5.38;;;2.60;;
71562;SDS011;59391;52.504;13.438;2023-07-13T13:13:41;6.78;;;2.63;;
71562;SDS011;59391;52.504;13.438;2023-07-13T13:16:11;4.70;;;2.53;;
71562;SDS011;59391;52.504;13.438;2023-07-13T13:18:46;5.00;;;2.60;;
71562;SDS011;59391;52.504;13.438;2023-07-13T13:21:13;5.68;;;2.72;;
71562;SDS011;59391;52.504;13.438;2023-07-13T13:23:40;7.13;;;2.90;;
71562;SDS011;59391;52.504;13.438;2023-07-13T13:26:10;4.70;;;2.70;;
71562;SDS011;59391;52.504;13.438;2023-07-13T13:28:38;5.63;;;2.58;;
71562;SDS011;59391;52.504;13.438;2023-07-13T13:31:09;6.30;;;2.95;;
71562;SDS011;59391;52.504;13.438;2023-07-13T13:33:37;6.60;;;2.55;;
71562;SDS011;59391;52.504;13.438;2023-07-13T13:36:12;6.97;;;3.00;;
71562;SDS011;59391;52.504;13.438;2023-07-13T13:38:38;6.43;;;2.90;;
71562;SDS011;59391;52.504;13.438;2023-07-13T13:41:05;5.63;;;2.85;;
71562;SDS011;59391;52.504;13.438;2023-07-13T13:43:33;6.10;;;2.92;;
71562;SDS011;59391;52.504;13.438;2023-07-13T13:45:59;4.87;;;2.70;;
71562;SDS011;59391;52.504;13.438;2023-07-13T13:48:32;7.47;;;2.63;;
71562;SDS011;59391;52.504;13.438;2023-07-13T13:51:00;5.00;;;2.15;;
71562;SDS011;59391;52.504;13.438;2023-07-13T13:53:37;5.30;;;2.40;;
71562;SDS011;59391;52.504;13.438;2023-07-13T13:56:03;4.90;;;2.73;;
71562;SDS011;59391;52.504;13.438;2023-07-13T13:58:29;5.55;;;2.80;;
71562;SDS011;59391;52.504;13.438;2023-07-13T14:00:56;6.35;;;2.60;;
71562;SDS011;59391;52.504;13.438;2023-07-13T14:03:23;5.15;;;2.50;;
71562;SDS011;59391;52.504;13.438;2023-07-13T14:05:49;5.03;;;2.97;;
71562;SDS011;59391;52.504;13.438;2023-07-13T14:08:16;5.07;;;2.60;;
71562;SDS011;59391;52.504;13.438;2023-07-13T14:10:45;4.97;;;2.60;;
71562;SDS011;59391;52.504;13.438;2023-07-13T14:13:16;5.10;;;2.40;;
71562;SDS011;59391;52.504;13.438;2023-07-13T14:15:46;4.45;;;2.35;;
71562;SDS011;59391;52.504;13.438;2023-07-13T14:18:12;5.13;;;2.23;;
71562;SDS011;59391;52.504;13.438;2023-07-13T14:20:43;5.82;;;2.55;;
71562;SDS011;59391;52.504;13.438;2023-07-13T14:23:10;6.13;;;2.63;;
71562;SDS011;59391;52.504;13.438;2023-07-13T14:25:44;5.15;;;2.40;;
71562;SDS011;59391;52.504;13.438;2023-07-13T14:28:19;5.50;;;2.72;;
71562;SDS011;59391;52.504;13.438;2023-07-13T14:30:51;6.13;;;2.70;;
71562;SDS011;59391;52.504;13.438;2023-07-13T14:33:19;6.47;;;2.50;;
71562;SDS011;59391;52.504;13.438;2023-07-13T14:35:45;6.78;;;2.83;;
71562;SDS011;59391;52.504;13.438;2023-07-13T14:38:13;5.38;;;2.30;;
71562;SDS011;59391;52.504;13.438;2023-07-13T14:40:43;5.00;;;2.60;;
71562;SDS011;59391;52.504;13.438;2023-07-13T14:43:09;6.00;;;2.60;;
71562;SDS011;59391;52.504;13.438;2023-07-13T14:45:41;5.82;;;2.72;;
71562;SDS011;59391;52.504;13.438;2023-07-13T14:48:20;5.03;;;2.88;;
71562;SDS011;59391;52.504;13.438;2023-07-13T14:50:50;5.70;;;3.07;;
71562;SDS011;59391;52.504;13.438;2023-07-13T14:53:21;5.45;;;2.72;;
71562;SDS011;59391;52.504;13.438;2023-07-13T14:55:48;5.72;;;2.90;;
71562;SDS011;59391;52.504;13.438;2023-07-13T14:58:13;5.23;;;2.60;;
71562;SDS011;59391;52.504;13.438;2023-07-13T15:00:39;5.07;;;2.65;;
71562;SDS011;59391;52.504;13.438;2023-07-13T15:03:05;5.73;;;2.63;;
71562;SDS011;59391;52.504;13.438;2023-07-13T15:05:44;4.43;;;2.70;;
71562;SDS011;59391;52.504;13.438;2023-07-13T15:08:10;4.15;;;2.25;;
71562;SDS011;59391;52.504;13.438;2023-07-13T15:10:37;5.88;;;2.00;;
71562;SDS011;59391;52.504;13.438;2023-07-13T15:15:50;6.15;;;2.40;;
71562;SDS011;59391;52.504;13.438;2023-07-13T15:18:19;4.22;;;2.17;;
71562;SDS011;59391;52.504;13.438;2023-07-13T15:20:48;4.50;;;2.15;;
71562;SDS011;59391;52.504;13.438;2023-07-13T15:23:17;4.35;;;2.00;;
71562;SDS011;59391;52.504;13.438;2023-07-13T15:25:43;4.97;;;2.10;;
71562;SDS011;59391;52.504;13.438;2023-07-13T15:28:10;6.22;;;2.22;;